createdAt,value
2022-11-23T00:05:11.433Z,91197.39
2022-11-23T00:13:35.699Z,91189.00
2022-11-23T00:21:57.256Z,91184.72
2022-11-23T00:30:19.459Z,91202.08
2022-11-23T00:38:42.720Z,91190.20
2022-11-23T00:47:04.962Z,91166.45
2022-11-23T00:55:29.257Z,91166.40
2022-11-23T01:03:54.666Z,91180.59
2022-11-23T01:12:16.594Z,91160.98
2022-11-23T01:20:42.061Z,91142.95
2022-11-23T01:29:04.694Z,91152.52
2022-11-23T01:37:27.355Z,91169.98
2022-11-23T01:46:00.401Z,91161.83
2022-11-23T01:54:33.211Z,91148.16
2022-11-23T02:02:57.780Z,91138.91
2022-11-23T02:11:19.881Z,91126.25
2022-11-23T02:20:13.644Z,91121.08
2022-11-23T02:28:45.718Z,91133.13
2022-11-23T02:37:07.988Z,91150.24
2022-11-23T02:45:47.053Z,91122.05
2022-11-23T02:54:08.577Z,91096.04
2022-11-23T03:02:31.452Z,91070.74
2022-11-23T03:10:52.896Z,91053.97
2022-11-23T03:19:15.035Z,91038.45
2022-11-23T03:27:38.329Z,91025.06
2022-11-23T03:36:02.693Z,91009.20
2022-11-23T03:44:28.491Z,91007.90
2022-11-23T03:52:50.214Z,90987.27
2022-11-23T04:01:12.744Z,90967.59
2022-11-23T04:09:38.574Z,90954.36
2022-11-23T04:18:00.318Z,90945.05
2022-11-23T04:26:22.149Z,90932.35
2022-11-23T04:34:43.694Z,90925.74
2022-11-23T04:43:09.388Z,90945.10
2022-11-23T04:51:32.703Z,90944.75
2022-11-23T04:59:55.124Z,90946.21
2022-11-23T05:08:17.627Z,90944.13
2022-11-23T05:16:56.937Z,90922.33
2022-11-23T05:25:20.475Z,90917.23
2022-11-23T05:33:45.674Z,90917.83
2022-11-23T05:42:07.481Z,90907.81
2022-11-23T05:50:35.698Z,90882.81
2022-11-23T05:59:15.918Z,90870.01
2022-11-23T06:07:42.729Z,90842.38
2022-11-23T06:16:07.523Z,90810.70
2022-11-23T06:24:38.889Z,90789.54
2022-11-23T06:33:19.307Z,90784.22
2022-11-23T06:41:44.069Z,90794.07
2022-11-23T06:50:08.678Z,90791.13
2022-11-23T06:58:31.515Z,90784.42
2022-11-23T07:06:55.092Z,90797.68
2022-11-23T07:15:31.270Z,90842.77
2022-11-23T07:23:54.989Z,90871.16
2022-11-23T07:32:16.614Z,90864.59
2022-11-23T07:40:39.486Z,90837.27
2022-11-23T07:49:05.922Z,90816.98
2022-11-23T07:57:27.794Z,90816.41
2022-11-23T08:05:49.408Z,90841.35
2022-11-23T08:14:11.688Z,90843.57
2022-11-23T08:22:33.176Z,90875.73
2022-11-23T08:30:54.695Z,90892.11
2022-11-23T08:39:18.657Z,90910.65
2022-11-23T08:47:40.213Z,90936.11
2022-11-23T08:56:04.067Z,90967.38
2022-11-23T09:04:27.068Z,91013.00
2022-11-23T09:12:49.411Z,91031.55
2022-11-23T09:21:11.037Z,91021.33
2022-11-23T09:29:32.988Z,91011.58
2022-11-23T09:37:56.991Z,91004.98
2022-11-23T09:46:37.258Z,91016.15
2022-11-23T09:55:25.917Z,91033.83
2022-11-23T10:03:49.486Z,91073.33
2022-11-23T10:12:11.219Z,91102.73
2022-11-23T10:21:11.685Z,91097.27
2022-11-23T10:29:37.851Z,91094.41
2022-11-23T10:38:17.001Z,91127.61
2022-11-23T10:46:40.505Z,91157.56
2022-11-23T10:55:05.820Z,91157.58
2022-11-23T11:03:30.859Z,91134.02
2022-11-23T11:11:55.059Z,91119.20
2022-11-23T11:20:33.096Z,91104.44
2022-11-23T11:29:01.070Z,91077.82
2022-11-23T11:37:44.320Z,91054.19
2022-11-23T11:46:29.013Z,91067.38
2022-11-23T11:54:53.677Z,91058.27
2022-11-23T12:03:51.229Z,91042.24
2022-11-23T12:12:25.113Z,91041.58
2022-11-23T12:20:53.439Z,91063.50
2022-11-23T12:29:39.294Z,91062.05
2022-11-23T12:38:28.968Z,91011.74
2022-11-23T12:46:59.845Z,90982.86
2022-11-23T12:55:25.097Z,90959.04
2022-11-23T13:03:50.262Z,90945.05
2022-11-23T13:12:17.988Z,90958.84
2022-11-23T13:21:20.030Z,90969.58
2022-11-23T13:29:45.431Z,90953.14
2022-11-23T13:38:12.996Z,90948.96
2022-11-23T13:46:36.617Z,90950.66
2022-11-23T13:55:11.051Z,90944.16
2022-11-23T14:04:18.615Z,90921.38
2022-11-23T14:12:59.845Z,90916.01
2022-11-23T14:21:57.591Z,90904.71
2022-11-23T14:30:28.318Z,90865.20
2022-11-23T14:39:05.523Z,90833.80
2022-11-23T14:47:30.026Z,90812.08
2022-11-23T14:55:51.770Z,90818.47
2022-11-23T15:04:56.198Z,90808.83
2022-11-23T15:13:28.772Z,90793.95
2022-11-23T15:21:50.594Z,90788.11
2022-11-23T15:30:20.404Z,90756.12
2022-11-23T15:38:42.139Z,90731.10
2022-11-23T15:47:07.244Z,90723.66
2022-11-23T15:55:29.889Z,90714.09
2022-11-23T16:03:55.185Z,90665.54
2022-11-23T16:12:25.361Z,90636.92
2022-11-23T16:20:53.854Z,90632.65
2022-11-23T16:29:29.194Z,90630.79
2022-11-23T16:37:50.824Z,90634.04
2022-11-23T16:46:12.530Z,90637.44
2022-11-23T16:54:34.902Z,90616.60
2022-11-23T17:02:56.955Z,90608.83
2022-11-23T17:11:23.465Z,90603.93
2022-11-23T17:19:47.964Z,90591.50
2022-11-23T17:28:22.104Z,90614.59
2022-11-23T17:36:46.925Z,90607.34
2022-11-23T17:45:10.555Z,90565.84
2022-11-23T17:53:32.068Z,90550.23
2022-11-23T18:01:54.432Z,90546.86
2022-11-23T18:10:16.294Z,90516.79
2022-11-23T18:18:38.552Z,90524.30
2022-11-23T18:27:00.213Z,90541.98
2022-11-23T18:35:22.199Z,90544.60
2022-11-23T18:43:44.026Z,90549.55
2022-11-23T18:52:05.662Z,90555.79
2022-11-23T19:00:28.552Z,90546.10
2022-11-23T19:08:56.924Z,90532.08
2022-11-23T19:17:19.157Z,90532.18
2022-11-23T19:25:41.004Z,90524.45
2022-11-23T19:34:05.427Z,90514.42
2022-11-23T19:42:26.984Z,90499.58
2022-11-23T19:51:13.005Z,90471.71
2022-11-23T19:59:34.806Z,90455.89
2022-11-23T20:07:57.610Z,90455.59
2022-11-23T20:16:20.908Z,90437.35
2022-11-23T20:24:42.629Z,90435.45
2022-11-23T20:33:04.246Z,90449.98
2022-11-23T20:41:28.928Z,90437.05
2022-11-23T20:49:50.405Z,90445.59
2022-11-23T20:58:12.643Z,90434.77
2022-11-23T21:06:38.654Z,90424.06
2022-11-23T21:15:02.002Z,90417.12
2022-11-23T21:23:23.470Z,90404.91
2022-11-23T21:31:46.853Z,90401.92
2022-11-23T21:40:09.086Z,90400.08
2022-11-23T21:48:32.636Z,90412.13
2022-11-23T21:56:54.728Z,90413.73
2022-11-23T22:05:16.354Z,90407.18
2022-11-23T22:13:39.133Z,90407.85
2022-11-23T22:22:00.761Z,90416.83
2022-11-23T22:30:22.268Z,90427.52
2022-11-23T22:38:46.402Z,90431.95
2022-11-23T22:47:07.976Z,90439.52
2022-11-23T22:55:31.161Z,90412.54
2022-11-23T23:03:57.689Z,90398.84
2022-11-23T23:12:19.318Z,90413.83
2022-11-23T23:20:41.448Z,90413.06
2022-11-23T23:29:03.998Z,90429.98
2022-11-23T23:37:25.544Z,90458.31
2022-11-23T23:45:47.022Z,90445.03
2022-11-23T23:54:08.644Z,90452.91
